createdAt,value
2019-02-12T00:00:12.952Z,102934.69
2019-02-12T00:02:41.584Z,102942.81
2019-02-12T00:05:10.153Z,102948.27
2019-02-12T00:07:38.709Z,102948.58
2019-02-12T00:10:07.395Z,102950.86
2019-02-12T00:12:35.950Z,102958.34
2019-02-12T00:15:05.833Z,102959.25
2019-02-12T00:17:34.432Z,102957.14
2019-02-12T00:20:03.057Z,102957.54
2019-02-12T00:22:31.599Z,102966.64
2019-02-12T00:25:00.230Z,102964.27
2019-02-12T00:27:28.719Z,102954.89
2019-02-12T00:29:57.178Z,102962.30
2019-02-12T00:32:25.767Z,102964.68
2019-02-12T00:34:54.243Z,102967.70
2019-02-12T00:37:22.789Z,102969.79
2019-02-12T00:39:51.283Z,102972.23
2019-02-12T00:42:19.895Z,102973.71
2019-02-12T00:44:48.315Z,102981.63
2019-02-12T00:47:16.875Z,102984.37
2019-02-12T00:49:46.118Z,102980.69
2019-02-12T00:52:14.774Z,102985.58
2019-02-12T00:54:43.271Z,102977.86
2019-02-12T00:57:11.738Z,102980.32
2019-02-12T00:59:40.443Z,102978.83
2019-02-12T01:02:09.175Z,102974.80
2019-02-12T01:04:37.710Z,102973.14
2019-02-12T01:07:06.276Z,102985.17
2019-02-12T01:09:34.821Z,102990.38
2019-02-12T01:12:03.386Z,102994.00
2019-02-12T01:14:32.117Z,102992.00
2019-02-12T01:17:00.701Z,102985.41
2019-02-12T01:19:29.235Z,102994.47
2019-02-12T01:21:58.760Z,102979.29
2019-02-12T01:24:27.213Z,102972.28
2019-02-12T01:26:55.814Z,102967.66
2019-02-12T01:29:24.273Z,102972.42
2019-02-12T01:31:52.844Z,102976.23
2019-02-12T01:34:21.432Z,102972.44
2019-02-12T01:36:51.433Z,102980.44
2019-02-12T01:39:19.944Z,102990.47
2019-02-12T01:41:48.410Z,102985.13
2019-02-12T01:44:16.951Z,102992.95
2019-02-12T01:46:45.504Z,102992.54
2019-02-12T01:49:13.931Z,102989.73
2019-02-12T01:51:42.558Z,102981.72
2019-02-12T01:54:11.119Z,102991.53
2019-02-12T01:56:39.659Z,102986.95
2019-02-12T01:59:08.271Z,103002.19
2019-02-12T02:01:36.771Z,102998.23
2019-02-12T02:04:05.403Z,102998.23
2019-02-12T02:06:33.973Z,102999.39
2019-02-12T02:09:02.584Z,103000.14
2019-02-12T02:11:31.164Z,103005.20
2019-02-12T02:13:59.637Z,103003.61
2019-02-12T02:16:28.329Z,103010.74
2019-02-12T02:18:56.926Z,103011.33
2019-02-12T02:21:25.495Z,103004.53
2019-02-12T02:23:54.285Z,103010.05
2019-02-12T02:26:22.802Z,103008.34
2019-02-12T02:28:51.374Z,103011.97
2019-02-12T02:31:19.898Z,103011.55
2019-02-12T02:33:48.469Z,103009.00
2019-02-12T02:36:17.132Z,103005.84
2019-02-12T02:38:45.685Z,103005.10
2019-02-12T02:41:14.358Z,103018.49
2019-02-12T02:43:42.889Z,103016.06
2019-02-12T02:46:11.397Z,103025.33
2019-02-12T02:48:39.903Z,103013.05
2019-02-12T02:51:08.469Z,103010.00
2019-02-12T02:53:36.964Z,103021.40
2019-02-12T02:56:05.544Z,103019.64
2019-02-12T02:58:34.171Z,103027.28
2019-02-12T03:01:02.825Z,103024.47
2019-02-12T03:03:31.364Z,103024.47
2019-02-12T03:05:59.883Z,103019.28
2019-02-12T03:08:28.427Z,103024.13
2019-02-12T03:10:56.976Z,103030.81
2019-02-12T03:13:25.576Z,103025.14
2019-02-12T03:15:54.270Z,103026.18
2019-02-12T03:18:22.787Z,103032.42
2019-02-12T03:20:51.275Z,103025.70
2019-02-12T03:23:19.737Z,103031.59
2019-02-12T03:25:48.364Z,103028.58
2019-02-12T03:28:17.058Z,103034.09
2019-02-12T03:30:45.569Z,103027.52
2019-02-12T03:33:14.119Z,103031.99
2019-02-12T03:35:42.587Z,103035.56
2019-02-12T03:38:11.133Z,103031.16
2019-02-12T03:40:39.712Z,103034.61
2019-02-12T03:43:08.343Z,103040.89
2019-02-12T03:45:36.908Z,103042.69
2019-02-12T03:48:05.524Z,103043.25
2019-02-12T03:50:34.125Z,103048.25
2019-02-12T03:53:02.578Z,103038.58
2019-02-12T03:55:31.157Z,103048.44
2019-02-12T03:57:59.735Z,103044.31
2019-02-12T04:00:28.408Z,103040.97
2019-02-12T04:02:59.883Z,103041.53
2019-02-12T04:05:28.613Z,103045.06
2019-02-12T04:07:57.139Z,103044.77
2019-02-12T04:10:26.307Z,103040.02
2019-02-12T04:12:54.891Z,103041.22
2019-02-12T04:15:23.578Z,103047.46
2019-02-12T04:17:52.116Z,103041.45
2019-02-12T04:20:20.599Z,103041.45
2019-02-12T04:22:49.250Z,103053.07
2019-02-12T04:25:17.898Z,103051.98
2019-02-12T04:27:46.395Z,103051.47
2019-02-12T04:30:14.876Z,103050.05
2019-02-12T04:32:43.474Z,103054.08
2019-02-12T04:35:12.085Z,103053.70
2019-02-12T04:37:41.334Z,103053.53
2019-02-12T04:40:11.266Z,103051.25
2019-02-12T04:42:39.827Z,103062.93
2019-02-12T04:45:10.515Z,103053.54
2019-02-12T04:47:39.078Z,103051.24
2019-02-12T04:50:10.480Z,103057.14
2019-02-12T04:52:39.070Z,103058.55
2019-02-12T04:55:09.588Z,103048.48
2019-02-12T04:57:38.115Z,103048.84
2019-02-12T05:00:17.668Z,103052.95
2019-02-12T05:02:46.253Z,103055.64
2019-02-12T05:05:15.011Z,103058.02
2019-02-12T05:07:43.617Z,103061.48
2019-02-12T05:10:15.468Z,103064.39
2019-02-12T05:12:44.012Z,103057.33
2019-02-12T05:15:12.613Z,103057.52
2019-02-12T05:17:41.231Z,103058.80
2019-02-12T05:20:12.344Z,103060.05
2019-02-12T05:22:43.580Z,103063.12
2019-02-12T05:25:13.036Z,103068.46
2019-02-12T05:27:41.461Z,103066.38
2019-02-12T05:30:12.191Z,103063.66
2019-02-12T05:32:41.127Z,103064.14
2019-02-12T05:35:09.748Z,103067.15
2019-02-12T05:37:38.368Z,103070.27
2019-02-12T05:40:11.303Z,103059.63
2019-02-12T05:42:39.909Z,103062.44
2019-02-12T05:45:12.873Z,103061.71
2019-02-12T05:47:41.516Z,103058.89
2019-02-12T05:50:12.460Z,103062.15
2019-02-12T05:52:41.111Z,103067.13
2019-02-12T05:55:09.923Z,103071.77
2019-02-12T05:57:38.510Z,103077.27
2019-02-12T06:00:13.261Z,103079.77
2019-02-12T06:02:41.794Z,103076.78
2019-02-12T06:05:10.610Z,103077.81
2019-02-12T06:07:39.259Z,103084.17
2019-02-12T06:10:10.598Z,103081.92
2019-02-12T06:12:39.185Z,103078.72
2019-02-12T06:15:07.968Z,103082.30
2019-02-12T06:17:36.628Z,103084.06
2019-02-12T06:20:07.234Z,103086.82
2019-02-12T06:22:35.814Z,103087.77
2019-02-12T06:25:08.095Z,103087.48
2019-02-12T06:27:36.231Z,103086.27
2019-02-12T06:30:06.930Z,103084.44
2019-02-12T06:32:38.134Z,103087.52
2019-02-12T06:35:08.721Z,103081.30
2019-02-12T06:37:37.361Z,103084.57
2019-02-12T06:40:12.035Z,103089.61
2019-02-12T06:42:40.680Z,103087.81
2019-02-12T06:45:11.376Z,103095.01
2019-02-12T06:47:39.858Z,103092.77
2019-02-12T06:50:13.404Z,103090.30
2019-02-12T06:52:42.499Z,103100.14
2019-02-12T06:55:11.488Z,103098.22
2019-02-12T06:57:40.124Z,103099.64
2019-02-12T07:00:13.803Z,103100.42
2019-02-12T07:03:08.287Z,103099.73
2019-02-12T07:05:37.472Z,103102.36
2019-02-12T07:08:30.092Z,103109.70
2019-02-12T07:11:10.021Z,103112.78
2019-02-12T07:13:41.552Z,103120.56
2019-02-12T07:16:13.053Z,103124.19
2019-02-12T07:18:47.065Z,103119.80
2019-02-12T07:21:18.645Z,103123.83
2019-02-12T07:24:15.688Z,103133.80
2019-02-12T07:26:50.184Z,103138.76
2019-02-12T07:29:36.659Z,103151.05
2019-02-12T07:32:23.278Z,103157.27
2019-02-12T07:34:57.565Z,103159.52
2019-02-12T07:37:35.184Z,103167.16
2019-02-12T07:40:31.675Z,103171.41
2019-02-12T07:43:18.350Z,103182.05
2019-02-12T07:46:07.772Z,103186.67
2019-02-12T07:48:57.315Z,103191.28
2019-02-12T07:51:56.050Z,103185.78
2019-02-12T07:54:30.525Z,103193.42
2019-02-12T07:57:07.926Z,103195.50
2019-02-12T07:59:41.932Z,103198.88
2019-02-12T08:02:28.474Z,103207.30
2019-02-12T08:05:25.750Z,103206.86
2019-02-12T08:08:19.672Z,103204.42
2019-02-12T08:11:08.854Z,103212.72
2019-02-12T08:13:55.107Z,103220.31
2019-02-12T08:16:35.591Z,103226.00
2019-02-12T08:19:12.911Z,103229.95
2019-02-12T08:22:01.082Z,103231.19
2019-02-12T08:24:47.250Z,103236.43
2019-02-12T08:27:35.530Z,103243.13
2019-02-12T08:30:22.232Z,103249.31
2019-02-12T08:33:02.687Z,103257.14
2019-02-12T08:35:57.247Z,103258.92
2019-02-12T08:38:39.241Z,103256.93
2019-02-12T08:41:22.518Z,103261.11
2019-02-12T08:44:20.179Z,103252.16
2019-02-12T08:47:09.694Z,103254.63
2019-02-12T08:49:43.967Z,103255.53
2019-02-12T08:52:18.277Z,103256.61
2019-02-12T08:55:04.895Z,103256.52
2019-02-12T08:57:42.382Z,103252.77
2019-02-12T09:00:28.813Z,103256.45
2019-02-12T09:03:18.533Z,103248.42
2019-02-12T09:06:12.200Z,103250.41
2019-02-12T09:09:07.595Z,103253.06
2019-02-12T09:11:39.122Z,103249.69
2019-02-12T09:14:10.624Z,103258.29
2019-02-12T09:16:58.321Z,103257.95
2019-02-12T09:19:35.435Z,103256.14
2019-02-12T09:22:21.960Z,103251.75
2019-02-12T09:25:08.641Z,103252.56
2019-02-12T09:28:07.266Z,103249.03
2019-02-12T09:30:59.926Z,103248.77
2019-02-12T09:33:43.111Z,103255.45
2019-02-12T09:36:30.993Z,103258.97
2019-02-12T09:39:10.964Z,103266.39
2019-02-12T09:41:48.281Z,103260.88
2019-02-12T09:44:28.823Z,103256.27
2019-02-12T09:47:16.842Z,103262.25
2019-02-12T09:50:06.517Z,103264.09
2019-02-12T09:53:08.315Z,103268.05
2019-02-12T09:56:00.748Z,103268.63
2019-02-12T09:58:40.796Z,103261.79
2019-02-12T10:01:15.137Z,103269.36
2019-02-12T10:04:10.611Z,103268.59
2019-02-12T10:06:44.749Z,103271.21
2019-02-12T10:09:28.044Z,103272.16
2019-02-12T10:12:08.421Z,103269.28
2019-02-12T10:14:45.757Z,103267.64
2019-02-12T10:17:19.833Z,103264.06
2019-02-12T10:19:57.400Z,103267.37
2019-02-12T10:22:47.290Z,103271.71
2019-02-12T10:25:21.448Z,103282.80
2019-02-12T10:28:14.381Z,103290.84
2019-02-12T10:30:48.742Z,103287.70
2019-02-12T10:33:17.259Z,103288.73
2019-02-12T10:35:45.852Z,103280.53
2019-02-12T10:40:43.099Z,103288.52
2019-02-12T10:43:11.755Z,103289.87
2019-02-12T10:45:40.331Z,103285.00
2019-02-12T10:48:08.981Z,103289.69
2019-02-12T10:50:37.557Z,103283.39
2019-02-12T10:53:06.174Z,103279.80
2019-02-12T10:55:34.819Z,103286.84
2019-02-12T10:58:03.410Z,103274.97
2019-02-12T11:00:32.126Z,103282.09
2019-02-12T11:03:00.769Z,103277.58
2019-02-12T11:05:31.406Z,103281.03
2019-02-12T11:08:00.102Z,103278.14
2019-02-12T11:10:28.789Z,103274.28
2019-02-12T11:12:57.258Z,103273.27
2019-02-12T11:15:25.842Z,103279.61
2019-02-12T11:17:54.387Z,103278.17
2019-02-12T11:20:23.051Z,103269.25
2019-02-12T11:22:51.645Z,103264.76
2019-02-12T11:25:20.228Z,103263.31
2019-02-12T11:27:48.854Z,103263.81
2019-02-12T11:30:17.516Z,103258.55
2019-02-12T11:32:47.521Z,103258.23
2019-02-12T11:35:16.163Z,103266.00
2019-02-12T11:37:44.758Z,103261.64
2019-02-12T11:40:13.763Z,103259.95
2019-02-12T11:42:42.379Z,103262.69
2019-02-12T11:45:13.461Z,103254.52
2019-02-12T11:47:42.064Z,103251.78
2019-02-12T11:50:11.388Z,103255.41
2019-02-12T11:52:39.971Z,103255.07
2019-02-12T11:55:13.955Z,103254.06
2019-02-12T11:57:42.588Z,103255.19
2019-02-12T12:00:15.473Z,103253.39
2019-02-12T12:02:44.087Z,103251.84
2019-02-12T12:05:12.755Z,103250.72
2019-02-12T12:07:41.335Z,103245.03
2019-02-12T12:10:10.871Z,103243.20
2019-02-12T12:12:39.512Z,103244.31
2019-02-12T12:15:13.391Z,103240.05
2019-02-12T12:17:42.051Z,103245.04
2019-02-12T12:20:12.470Z,103241.09
2019-02-12T12:22:41.074Z,103236.77
2019-02-12T12:25:11.092Z,103242.01
2019-02-12T12:27:39.702Z,103245.77
2019-02-12T12:30:13.366Z,103246.06
2019-02-12T12:32:43.610Z,103245.55
2019-02-12T12:35:12.419Z,103243.22
2019-02-12T12:37:41.008Z,103235.49
2019-02-12T12:40:13.920Z,103231.09
2019-02-12T12:42:42.547Z,103232.16
2019-02-12T12:45:16.901Z,103238.67
2019-02-12T12:47:45.426Z,103227.95
2019-02-12T12:50:14.171Z,103235.52
2019-02-12T12:52:42.840Z,103237.19
2019-02-12T12:55:11.839Z,103242.30
2019-02-12T12:57:42.225Z,103235.12
2019-02-12T13:00:15.951Z,103239.05
2019-02-12T13:02:44.678Z,103242.56
2019-02-12T13:05:15.891Z,103248.08
2019-02-12T13:07:44.433Z,103247.98
2019-02-12T13:10:15.370Z,103247.98
2019-02-12T13:12:43.927Z,103246.88
2019-02-12T13:15:15.872Z,103231.86
2019-02-12T13:17:44.463Z,103236.81
2019-02-12T13:20:19.958Z,103226.71
2019-02-12T13:22:48.500Z,103227.05
2019-02-12T13:25:17.072Z,103231.45
2019-02-12T13:27:45.491Z,103232.39
2019-02-12T13:30:16.405Z,103228.98
2019-02-12T13:32:44.986Z,103234.16
2019-02-12T13:35:13.911Z,103238.28
2019-02-12T13:37:42.407Z,103235.95
2019-02-12T13:40:14.120Z,103239.23
2019-02-12T13:42:42.767Z,103241.17
2019-02-12T13:45:18.087Z,103233.71
2019-02-12T13:47:46.709Z,103230.01
2019-02-12T13:50:15.280Z,103226.53
2019-02-12T13:52:43.921Z,103227.06
2019-02-12T13:55:17.410Z,103231.36
2019-02-12T13:57:44.981Z,103235.16
2019-02-12T14:00:15.831Z,103229.48
2019-02-12T14:02:44.423Z,103233.45
2019-02-12T14:05:18.166Z,103229.22
2019-02-12T14:07:46.759Z,103223.86
2019-02-12T14:10:15.406Z,103218.28
2019-02-12T14:12:44.056Z,103227.20
2019-02-12T14:15:13.704Z,103222.07
2019-02-12T14:17:42.270Z,103234.11
2019-02-12T14:20:12.945Z,103233.00
2019-02-12T14:22:41.562Z,103237.92
2019-02-12T14:25:14.689Z,103238.75
2019-02-12T14:27:43.286Z,103231.26
2019-02-12T14:30:15.748Z,103235.01
2019-02-12T14:32:44.328Z,103232.83
2019-02-12T14:35:13.378Z,103231.61
2019-02-12T14:37:41.901Z,103225.20
2019-02-12T14:40:12.856Z,103228.59
2019-02-12T14:42:41.444Z,103227.70
2019-02-12T14:45:17.944Z,103234.20
2019-02-12T14:47:48.594Z,103233.69
2019-02-12T14:50:18.378Z,103235.01
2019-02-12T14:52:46.999Z,103236.09
2019-02-12T14:55:15.554Z,103242.03
2019-02-12T14:57:44.151Z,103240.39
2019-02-12T15:00:17.033Z,103242.23
2019-02-12T15:02:47.117Z,103241.87
2019-02-12T15:05:15.699Z,103239.09
2019-02-12T15:07:44.328Z,103236.21
2019-02-12T15:10:15.504Z,103233.97
2019-02-12T15:12:44.138Z,103229.16
2019-02-12T15:15:13.079Z,103227.98
2019-02-12T15:17:41.655Z,103228.62
2019-02-12T15:20:11.385Z,103224.52
2019-02-12T15:22:39.921Z,103226.72
2019-02-12T15:25:10.496Z,103224.19
2019-02-12T15:27:39.081Z,103222.77
2019-02-12T15:30:17.319Z,103218.83
2019-02-12T15:32:45.926Z,103218.83
2019-02-12T15:35:14.547Z,103215.97
2019-02-12T15:37:43.054Z,103215.77
2019-02-12T15:40:19.525Z,103213.30
2019-02-12T15:42:48.132Z,103212.41
2019-02-12T15:45:23.825Z,103213.19
2019-02-12T15:47:52.481Z,103212.16
2019-02-12T15:50:21.011Z,103222.10
2019-02-12T15:52:49.509Z,103212.98
2019-02-12T15:55:18.030Z,103230.25
2019-02-12T15:57:46.606Z,103228.41
2019-02-12T16:00:21.981Z,103224.18
2019-02-12T16:02:50.529Z,103226.52
2019-02-12T16:05:19.194Z,103220.08
2019-02-12T16:07:47.907Z,103216.26
2019-02-12T16:10:19.694Z,103224.84
2019-02-12T16:12:49.469Z,103221.85
2019-02-12T16:15:21.892Z,103228.73
2019-02-12T16:17:49.827Z,103235.15
2019-02-12T16:20:18.449Z,103236.21
2019-02-12T16:22:47.046Z,103237.92
2019-02-12T16:25:15.722Z,103238.77
2019-02-12T16:27:45.802Z,103249.22
2019-02-12T16:30:16.965Z,103253.93
2019-02-12T16:32:45.576Z,103256.96
2019-02-12T16:35:16.327Z,103258.41
2019-02-12T16:37:45.171Z,103249.38
2019-02-12T16:40:14.957Z,103251.88
2019-02-12T16:42:43.570Z,103259.06
2019-02-12T16:45:17.752Z,103260.18
2019-02-12T16:47:46.370Z,103263.31
2019-02-12T16:50:14.957Z,103262.99
2019-02-12T16:52:43.581Z,103266.66
2019-02-12T16:55:12.358Z,103269.21
2019-02-12T16:57:40.928Z,103275.05
2019-02-12T17:00:12.366Z,103276.50
2019-02-12T17:02:41.027Z,103279.72
2019-02-12T17:05:11.559Z,103277.67
2019-02-12T17:07:41.184Z,103285.94
2019-02-12T17:10:10.673Z,103284.39
2019-02-12T17:12:39.259Z,103286.57
2019-02-12T17:15:10.283Z,103284.76
2019-02-12T17:17:38.903Z,103289.69
2019-02-12T17:20:10.676Z,103289.53
2019-02-12T17:22:39.292Z,103284.80
2019-02-12T17:25:09.977Z,103288.31
2019-02-12T17:27:38.619Z,103288.33
2019-02-12T17:30:10.428Z,103294.60
2019-02-12T17:32:39.053Z,103299.68
2019-02-12T17:35:07.951Z,103304.32
2019-02-12T17:37:36.590Z,103302.23
2019-02-12T17:40:08.079Z,103312.47
2019-02-12T17:42:36.664Z,103310.69
2019-02-12T17:45:08.586Z,103316.05
2019-02-12T17:47:37.235Z,103314.53
2019-02-12T17:50:08.372Z,103311.06
2019-02-12T17:52:36.907Z,103310.06
2019-02-12T17:55:07.388Z,103307.53
2019-02-12T17:57:36.091Z,103306.94
2019-02-12T18:00:09.080Z,103309.66
2019-02-12T18:02:37.703Z,103317.27
2019-02-12T18:05:07.099Z,103316.38
2019-02-12T18:07:35.730Z,103312.18
2019-02-12T18:10:05.136Z,103315.33
2019-02-12T18:12:33.697Z,103306.50
2019-02-12T18:15:02.255Z,103312.63
2019-02-12T18:17:30.731Z,103317.05
2019-02-12T18:19:59.314Z,103321.78
2019-02-12T18:22:27.945Z,103321.78
2019-02-12T18:24:56.644Z,103315.20
2019-02-12T18:27:25.243Z,103322.31
2019-02-12T18:29:53.884Z,103319.33
2019-02-12T18:32:22.535Z,103314.63
2019-02-12T18:34:53.408Z,103310.07
2019-02-12T18:37:22.112Z,103320.32
2019-02-12T18:39:52.466Z,103320.39
2019-02-12T18:42:21.311Z,103315.00
2019-02-12T18:44:50.035Z,103318.91
2019-02-12T18:47:18.630Z,103321.98
2019-02-12T18:49:47.156Z,103315.70
2019-02-12T18:52:15.790Z,103320.47
2019-02-12T18:54:44.379Z,103309.19
2019-02-12T18:57:13.041Z,103312.21
2019-02-12T18:59:41.590Z,103308.73
2019-02-12T19:02:10.718Z,103305.81
2019-02-12T19:04:39.284Z,103309.28
2019-02-12T19:07:07.875Z,103306.02
2019-02-12T19:09:36.454Z,103297.42
2019-02-12T19:12:06.077Z,103300.85
2019-02-12T19:14:34.494Z,103291.89
2019-02-12T19:17:03.076Z,103289.79
2019-02-12T19:19:31.660Z,103289.79
2019-02-12T19:22:00.325Z,103295.23
2019-02-12T19:24:28.976Z,103291.83
2019-02-12T19:26:57.634Z,103297.25
2019-02-12T19:29:26.260Z,103298.16
2019-02-12T19:31:59.268Z,103304.70
2019-02-12T19:34:25.335Z,103310.28
2019-02-12T19:36:53.992Z,103306.90
2019-02-12T19:39:23.963Z,103310.91
2019-02-12T19:41:52.917Z,103312.88
2019-02-12T19:44:21.494Z,103322.97
2019-02-12T19:46:50.013Z,103319.38
2019-02-12T19:49:20.103Z,103322.70
2019-02-12T19:51:48.494Z,103327.64
2019-02-12T19:54:17.194Z,103327.64
2019-02-12T19:56:45.719Z,103326.30
2019-02-12T19:59:14.274Z,103329.62
2019-02-12T20:01:42.861Z,103330.53
2019-02-12T20:04:11.448Z,103334.58
2019-02-12T20:06:40.071Z,103334.98
2019-02-12T20:09:10.463Z,103326.95
2019-02-12T20:11:39.118Z,103330.09
2019-02-12T20:14:07.815Z,103332.22
2019-02-12T20:16:36.375Z,103326.01
2019-02-12T20:19:04.977Z,103330.98
2019-02-12T20:21:33.669Z,103324.17
2019-02-12T20:24:02.271Z,103330.49
2019-02-12T20:26:30.934Z,103321.95
2019-02-12T20:28:59.544Z,103328.87
2019-02-12T20:31:28.233Z,103330.98
2019-02-12T20:33:57.319Z,103326.14
2019-02-12T20:36:25.847Z,103321.25
2019-02-12T20:38:54.354Z,103317.31
2019-02-12T20:41:23.000Z,103323.13
2019-02-12T20:43:51.585Z,103323.17
2019-02-12T20:46:20.289Z,103326.46
2019-02-12T20:48:48.983Z,103321.04
2019-02-12T20:51:20.512Z,103320.55
2019-02-12T20:53:48.903Z,103325.27
2019-02-12T20:56:17.457Z,103328.28
2019-02-12T20:58:46.119Z,103334.15
2019-02-12T21:01:14.725Z,103337.95
2019-02-12T21:03:43.376Z,103338.58
2019-02-12T21:06:12.002Z,103331.86
2019-02-12T21:08:40.659Z,103334.63
2019-02-12T21:11:09.285Z,103329.94
2019-02-12T21:13:37.821Z,103338.48
2019-02-12T21:16:06.524Z,103334.69
2019-02-12T21:18:35.188Z,103329.27
2019-02-12T21:21:03.769Z,103333.23
2019-02-12T21:23:33.457Z,103332.33
2019-02-12T21:26:02.466Z,103337.68
2019-02-12T21:28:31.086Z,103328.14
2019-02-12T21:30:59.664Z,103335.44
2019-02-12T21:33:28.219Z,103342.81
2019-02-12T21:35:56.863Z,103354.45
2019-02-12T21:38:26.608Z,103339.80
2019-02-12T21:40:55.233Z,103348.95
2019-02-12T21:43:23.867Z,103347.16
2019-02-12T21:45:52.517Z,103343.19
2019-02-12T21:48:21.160Z,103340.25
2019-02-12T21:50:49.926Z,103348.31
2019-02-12T21:53:18.522Z,103352.37
2019-02-12T21:55:47.123Z,103361.31
2019-02-12T21:58:15.791Z,103369.03
2019-02-12T22:00:44.477Z,103368.46
2019-02-12T22:03:13.045Z,103365.65
2019-02-12T22:05:41.632Z,103366.59
2019-02-12T22:08:11.090Z,103369.69
2019-02-12T22:10:46.182Z,103375.31
2019-02-12T22:13:09.941Z,103382.17
2019-02-12T22:15:39.251Z,103387.20
2019-02-12T22:18:07.868Z,103383.82
2019-02-12T22:20:36.478Z,103383.52
2019-02-12T22:23:05.055Z,103376.03
2019-02-12T22:25:33.753Z,103385.72
2019-02-12T22:28:02.867Z,103387.34
2019-02-12T22:30:31.582Z,103383.20
2019-02-12T22:33:00.098Z,103391.16
2019-02-12T22:35:28.697Z,103383.47
2019-02-12T22:37:57.255Z,103378.01
2019-02-12T22:40:25.934Z,103381.38
2019-02-12T22:42:54.559Z,103383.29
2019-02-12T22:45:24.229Z,103372.88
2019-02-12T22:47:52.788Z,103372.25
2019-02-12T22:50:21.377Z,103374.61
2019-02-12T22:52:50.011Z,103388.38
2019-02-12T22:55:18.587Z,103393.05
2019-02-12T22:57:49.267Z,103389.91
2019-02-12T23:00:48.743Z,103389.66
2019-02-12T23:03:19.251Z,103391.78
2019-02-12T23:05:48.046Z,103393.08
2019-02-12T23:08:16.644Z,103398.03
2019-02-12T23:10:45.338Z,103404.42
2019-02-12T23:13:14.238Z,103409.98
2019-02-12T23:15:42.801Z,103403.78
2019-02-12T23:18:11.495Z,103406.50
2019-02-12T23:20:40.108Z,103401.20
2019-02-12T23:23:08.698Z,103402.55
2019-02-12T23:25:37.398Z,103398.83
2019-02-12T23:28:06.008Z,103403.39
2019-02-12T23:30:34.609Z,103402.11
2019-02-12T23:33:03.378Z,103401.86
2019-02-12T23:35:31.908Z,103402.59
2019-02-12T23:38:00.468Z,103410.11
2019-02-12T23:40:28.988Z,103416.89
2019-02-12T23:42:57.602Z,103415.99
2019-02-12T23:45:26.140Z,103415.61
2019-02-12T23:47:54.708Z,103410.92
2019-02-12T23:50:23.333Z,103411.86
2019-02-12T23:52:51.920Z,103415.52
2019-02-12T23:55:20.460Z,103420.33
2019-02-12T23:57:49.023Z,103419.05
